createdAt,value
2023-04-05T00:00:22.872Z,63.17
2023-04-05T00:02:49.601Z,63.14
2023-04-05T00:05:29.315Z,63.48
2023-04-05T00:08:04.251Z,62.93
2023-04-05T00:10:31.819Z,63.47
2023-04-05T00:12:59.082Z,64.32
2023-04-05T00:15:27.500Z,65.27
2023-04-05T00:17:54.920Z,65.62
2023-04-05T00:20:21.576Z,65.73
2023-04-05T00:22:50.494Z,65.80
2023-04-05T00:25:18.438Z,66.46
2023-04-05T00:27:45.216Z,66.58
2023-04-05T00:30:12.739Z,66.84
2023-04-05T00:32:39.402Z,67.14
2023-04-05T00:35:06.555Z,67.90
2023-04-05T00:37:33.283Z,67.18
2023-04-05T00:39:59.958Z,67.74
2023-04-05T00:42:27.153Z,67.96
2023-04-05T00:44:53.792Z,67.33
2023-04-05T00:47:20.560Z,67.32
2023-04-05T00:49:47.290Z,68.16
2023-04-05T00:52:15.394Z,68.88
2023-04-05T00:54:43.407Z,68.51
2023-04-05T00:57:11.062Z,68.09
2023-04-05T00:59:37.810Z,68.50
2023-04-05T01:02:26.801Z,68.73
2023-04-05T01:05:19.324Z,69.09
2023-04-05T01:08:02.063Z,69.11
2023-04-05T01:10:39.491Z,70.03
2023-04-05T01:13:06.707Z,69.69
2023-04-05T01:15:33.383Z,70.24
2023-04-05T01:18:02.265Z,70.87
2023-04-05T01:20:34.395Z,70.92
2023-04-05T01:23:58.534Z,71.44
2023-04-05T01:26:54.156Z,72.24
2023-04-05T01:29:59.574Z,71.96
2023-04-05T01:33:03.487Z,71.47
2023-04-05T01:35:45.329Z,71.78
2023-04-05T01:38:17.047Z,71.70
2023-04-05T01:40:43.959Z,71.21
2023-04-05T01:43:15.072Z,71.93
2023-04-05T01:45:43.014Z,71.58
2023-04-05T01:48:09.916Z,71.45
2023-04-05T01:50:36.783Z,71.93
2023-04-05T01:53:03.826Z,70.81
2023-04-05T01:55:30.466Z,71.01
2023-04-05T01:57:57.557Z,71.25
2023-04-05T02:00:24.344Z,71.15
2023-04-05T02:02:51.528Z,71.13
2023-04-05T02:05:18.224Z,71.07
2023-04-05T02:07:44.862Z,70.87
2023-04-05T02:10:11.527Z,71.02
2023-04-05T02:12:38.192Z,70.43
2023-04-05T02:15:05.527Z,70.38
2023-04-05T02:17:34.174Z,71.17
2023-04-05T02:20:06.312Z,71.31
2023-04-05T02:22:32.951Z,71.61
2023-04-05T02:24:59.567Z,71.99
2023-04-05T02:27:26.275Z,71.92
2023-04-05T02:29:53.059Z,72.08
2023-04-05T02:32:19.770Z,72.05
2023-04-05T02:34:46.714Z,71.63
2023-04-05T02:37:13.346Z,72.26
2023-04-05T02:39:40.119Z,72.17
2023-04-05T02:42:06.807Z,72.17
2023-04-05T02:44:33.503Z,71.94
2023-04-05T02:47:00.150Z,71.26
2023-04-05T02:49:26.828Z,71.49
2023-04-05T02:51:53.443Z,72.03
2023-04-05T02:54:20.264Z,71.83
2023-04-05T02:56:47.237Z,71.21
2023-04-05T02:59:14.763Z,71.05
2023-04-05T03:01:44.473Z,71.86
2023-04-05T03:04:12.303Z,71.68
2023-04-05T03:06:39.195Z,72.11
2023-04-05T03:09:05.828Z,72.08
2023-04-05T03:11:33.984Z,72.27
2023-04-05T03:14:00.883Z,72.08
2023-04-05T03:16:28.582Z,72.50
2023-04-05T03:18:55.887Z,72.26
2023-04-05T03:21:22.714Z,72.35
2023-04-05T03:23:50.392Z,71.92
2023-04-05T03:26:17.067Z,71.55
2023-04-05T03:28:44.215Z,71.70
2023-04-05T03:31:11.912Z,71.85
2023-04-05T03:33:38.624Z,71.95
2023-04-05T03:36:06.286Z,71.47
2023-04-05T03:38:33.024Z,71.29
2023-04-05T03:40:59.652Z,70.85
2023-04-05T03:43:27.774Z,71.36
2023-04-05T03:45:54.399Z,71.15
2023-04-05T03:48:21.785Z,71.22
2023-04-05T03:50:48.543Z,71.27
2023-04-05T03:53:18.771Z,71.27
2023-04-05T03:55:49.309Z,71.26
2023-04-05T03:58:17.061Z,71.33
2023-04-05T04:00:43.756Z,71.59
2023-04-05T04:03:10.443Z,71.79
2023-04-05T04:05:39.351Z,71.93
2023-04-05T04:08:06.676Z,71.38
2023-04-05T04:10:34.663Z,71.33
2023-04-05T04:13:01.271Z,72.07
2023-04-05T04:15:28.035Z,72.20
2023-04-05T04:17:54.801Z,72.37
2023-04-05T04:20:21.467Z,73.81
2023-04-05T04:22:49.999Z,72.96
2023-04-05T04:25:18.868Z,73.77
2023-04-05T04:27:46.802Z,74.30
2023-04-05T04:30:15.080Z,73.72
2023-04-05T04:32:52.151Z,74.71
2023-04-05T04:35:27.922Z,74.21
2023-04-05T04:38:05.220Z,75.31
2023-04-05T04:40:38.958Z,75.13
2023-04-05T04:43:06.785Z,75.54
2023-04-05T04:45:37.862Z,75.80
2023-04-05T04:48:05.380Z,76.45
2023-04-05T04:50:32.886Z,76.54
2023-04-05T04:53:00.589Z,76.36
2023-04-05T04:55:30.447Z,76.11
2023-04-05T04:57:57.187Z,76.34
2023-04-05T05:00:24.186Z,76.40
2023-04-05T05:02:52.552Z,76.07
2023-04-05T05:05:26.515Z,76.12
2023-04-05T05:07:53.649Z,76.56
2023-04-05T05:10:20.646Z,76.02
2023-04-05T05:12:48.818Z,76.33
2023-04-05T05:15:15.638Z,76.39
2023-04-05T05:17:42.926Z,76.36
2023-04-05T05:20:11.144Z,75.67
2023-04-05T05:22:38.687Z,75.98
2023-04-05T05:25:06.981Z,75.63
2023-04-05T05:27:36.803Z,75.60
2023-04-05T05:30:04.172Z,75.46
2023-04-05T05:32:30.849Z,75.02
2023-04-05T05:34:57.515Z,74.49
2023-04-05T05:37:32.257Z,74.66
2023-04-05T05:39:59.305Z,73.42
2023-04-05T05:42:27.192Z,72.53
2023-04-05T05:44:54.085Z,73.19
2023-04-05T05:47:21.010Z,72.15
2023-04-05T05:49:49.617Z,71.54
2023-04-05T05:52:16.982Z,71.03
2023-04-05T05:54:43.697Z,70.99
2023-04-05T05:57:10.398Z,70.73
2023-04-05T05:59:37.041Z,70.45
2023-04-05T06:02:03.745Z,71.10
2023-04-05T06:04:30.554Z,71.50
2023-04-05T06:06:58.033Z,72.16
2023-04-05T06:09:24.724Z,71.65
2023-04-05T06:11:56.751Z,71.06
2023-04-05T06:14:24.713Z,70.11
2023-04-05T06:16:51.486Z,70.37
2023-04-05T06:19:18.117Z,70.36
2023-04-05T06:21:44.740Z,69.11
2023-04-05T06:24:11.409Z,67.89
2023-04-05T06:26:38.051Z,66.79
2023-04-05T06:29:04.710Z,66.41
2023-04-05T06:31:33.096Z,67.14
2023-04-05T06:34:00.049Z,65.71
2023-04-05T06:36:27.749Z,65.63
2023-04-05T06:38:54.660Z,65.98
2023-04-05T06:41:21.307Z,65.00
2023-04-05T06:43:47.915Z,65.09
2023-04-05T06:46:14.616Z,64.82
2023-04-05T06:48:42.257Z,64.33
2023-04-05T06:51:08.967Z,63.65
2023-04-05T06:53:35.582Z,63.56
2023-04-05T06:56:02.971Z,62.87
2023-04-05T06:58:30.003Z,63.35
2023-04-05T07:00:56.796Z,62.43
2023-04-05T07:03:23.463Z,62.39
2023-04-05T07:06:01.633Z,61.36
2023-04-05T07:08:32.693Z,60.24
2023-04-05T07:10:59.493Z,57.75
2023-04-05T07:13:26.604Z,58.78
2023-04-05T07:16:00.517Z,59.79
2023-04-05T07:18:27.608Z,59.46
2023-04-05T07:21:00.178Z,58.36
2023-04-05T07:23:28.323Z,58.82
2023-04-05T07:25:56.082Z,58.60
2023-04-05T07:28:23.090Z,56.62
2023-04-05T07:30:49.946Z,54.22
2023-04-05T07:33:16.688Z,56.86
2023-04-05T07:35:43.353Z,57.96
2023-04-05T07:38:11.365Z,57.70
2023-04-05T07:40:38.068Z,57.10
2023-04-05T07:43:04.801Z,57.98
2023-04-05T07:45:31.502Z,56.38
2023-04-05T07:47:58.201Z,55.35
2023-04-05T07:50:26.172Z,55.28
2023-04-05T07:52:52.798Z,54.13
2023-04-05T07:55:19.489Z,55.00
2023-04-05T07:57:46.107Z,50.80
2023-04-05T08:00:13.836Z,50.24
2023-04-05T08:02:40.885Z,50.47
2023-04-05T08:05:08.131Z,51.61
2023-04-05T08:07:34.798Z,51.88
2023-04-05T08:10:01.639Z,52.44
2023-04-05T08:12:28.331Z,52.42
2023-04-05T08:14:54.993Z,52.49
2023-04-05T08:17:21.613Z,52.70
2023-04-05T08:19:49.428Z,50.72
2023-04-05T08:22:17.819Z,50.58
2023-04-05T08:24:44.803Z,51.52
2023-04-05T08:27:11.684Z,49.70
2023-04-05T08:29:38.608Z,50.09
2023-04-05T08:32:05.429Z,50.15
2023-04-05T08:34:32.098Z,52.53
2023-04-05T08:37:00.129Z,51.78
2023-04-05T08:39:27.179Z,50.70
2023-04-05T08:42:17.658Z,50.95
2023-04-05T08:44:52.396Z,50.60
2023-04-05T08:47:21.197Z,50.71
2023-04-05T08:49:48.927Z,49.80
2023-04-05T08:52:16.244Z,49.16
2023-04-05T08:54:43.147Z,48.99
2023-04-05T08:57:10.467Z,48.13
2023-04-05T08:59:39.319Z,49.26
2023-04-05T09:02:12.364Z,47.13
2023-04-05T09:04:44.946Z,46.15
2023-04-05T09:07:14.227Z,47.21
2023-04-05T09:09:46.248Z,47.72
2023-04-05T09:12:13.970Z,49.15
2023-04-05T09:14:41.290Z,48.43
2023-04-05T09:17:08.335Z,48.51
2023-04-05T09:19:35.006Z,49.51
2023-04-05T09:22:08.693Z,48.90
2023-04-05T09:24:43.010Z,49.17
2023-04-05T09:27:11.934Z,48.49
2023-04-05T09:29:40.609Z,49.91
2023-04-05T09:32:08.746Z,49.27
2023-04-05T09:34:39.161Z,48.04
2023-04-05T09:37:16.935Z,45.32
2023-04-05T09:39:44.677Z,47.36
2023-04-05T09:42:16.498Z,49.63
2023-04-05T09:45:02.979Z,47.35
2023-04-05T09:47:33.088Z,45.35
2023-04-05T09:50:19.142Z,45.99
2023-04-05T09:52:45.889Z,43.70
2023-04-05T09:55:13.409Z,47.33
2023-04-05T09:57:43.682Z,45.23
2023-04-05T10:00:21.843Z,46.89
2023-04-05T10:02:53.262Z,44.21
2023-04-05T10:05:24.008Z,46.36
2023-04-05T10:07:51.027Z,48.38
2023-04-05T10:10:18.112Z,46.37
2023-04-05T10:12:47.095Z,45.44
2023-04-05T10:15:17.970Z,47.39
2023-04-05T10:18:08.814Z,45.89
2023-04-05T10:20:41.059Z,46.25
2023-04-05T10:23:12.379Z,47.21
2023-04-05T10:26:19.426Z,42.89
2023-04-05T10:28:52.415Z,45.33
2023-04-05T10:31:38.273Z,47.36
2023-04-05T10:34:14.258Z,42.91
2023-04-05T10:37:01.869Z,45.51
2023-04-05T10:39:33.733Z,43.60
2023-04-05T10:42:05.286Z,46.36
2023-04-05T10:44:33.911Z,46.24
2023-04-05T10:47:01.231Z,44.61
2023-04-05T10:49:49.511Z,44.95
2023-04-05T10:52:18.221Z,46.19
2023-04-05T10:54:45.183Z,42.83
2023-04-05T10:57:12.810Z,44.42
2023-04-05T10:59:45.165Z,45.35
2023-04-05T11:02:12.382Z,46.25
2023-04-05T11:04:41.802Z,41.33
2023-04-05T11:07:17.018Z,43.71
2023-04-05T11:10:04.334Z,43.43
2023-04-05T11:13:07.566Z,46.78
2023-04-05T11:15:35.143Z,43.48
2023-04-05T11:18:44.163Z,42.66
2023-04-05T11:21:10.873Z,43.13
2023-04-05T11:24:03.760Z,42.05
2023-04-05T11:27:08.724Z,45.58
2023-04-05T11:29:50.626Z,45.47
2023-04-05T11:32:17.470Z,43.60
2023-04-05T11:34:44.973Z,44.59
2023-04-05T11:37:11.727Z,45.02
2023-04-05T11:39:39.268Z,45.34
2023-04-05T11:42:09.665Z,46.40
2023-04-05T11:44:49.031Z,45.53
2023-04-05T11:47:21.777Z,45.81
2023-04-05T11:49:52.200Z,40.89
2023-04-05T11:52:21.791Z,41.24
2023-04-05T11:54:49.700Z,43.55
2023-04-05T11:57:21.356Z,45.83
2023-04-05T11:59:50.183Z,43.93
2023-04-05T12:02:17.758Z,40.88
2023-04-05T12:04:44.432Z,43.23
2023-04-05T12:07:14.948Z,44.06
2023-04-05T12:10:02.841Z,41.78
2023-04-05T12:12:40.853Z,42.50
2023-04-05T12:15:09.374Z,43.46
2023-04-05T12:17:50.184Z,41.37
2023-04-05T12:20:20.109Z,41.53
2023-04-05T12:22:48.752Z,42.68
2023-04-05T12:25:16.620Z,41.19
2023-04-05T12:27:43.503Z,43.70
2023-04-05T12:30:15.962Z,43.71
2023-04-05T12:32:55.765Z,43.18
2023-04-05T12:35:24.848Z,41.53
2023-04-05T12:37:52.131Z,42.39
2023-04-05T12:40:23.581Z,42.60
2023-04-05T12:42:50.616Z,42.39
2023-04-05T12:45:18.590Z,41.73
2023-04-05T12:47:53.718Z,42.23
2023-04-05T12:50:29.642Z,40.69
2023-04-05T12:53:01.038Z,40.92
2023-04-05T12:55:31.285Z,40.07
2023-04-05T12:58:01.988Z,40.07
2023-04-05T13:00:30.020Z,41.37
2023-04-05T13:02:58.486Z,43.90
2023-04-05T13:05:30.368Z,43.17
2023-04-05T13:07:57.785Z,43.45
2023-04-05T13:10:25.867Z,41.91
2023-04-05T13:12:52.638Z,43.40
2023-04-05T13:15:19.753Z,40.25
2023-04-05T13:17:49.738Z,38.93
2023-04-05T13:20:17.988Z,39.63
2023-04-05T13:22:45.370Z,41.92
2023-04-05T13:25:12.231Z,41.87
2023-04-05T13:27:38.877Z,42.59
2023-04-05T13:30:07.460Z,42.85
2023-04-05T13:32:34.164Z,42.17
2023-04-05T13:35:00.989Z,39.79
2023-04-05T13:37:27.886Z,40.49
2023-04-05T13:39:54.547Z,44.15
2023-04-05T13:42:21.731Z,43.99
2023-04-05T13:44:48.285Z,41.27
2023-04-05T13:47:16.176Z,40.78
2023-04-05T13:49:43.416Z,44.71
2023-04-05T13:52:10.394Z,42.68
2023-04-05T13:54:37.035Z,40.32
2023-04-05T13:57:04.198Z,42.23
2023-04-05T13:59:31.034Z,41.06
2023-04-05T14:01:57.887Z,44.34
2023-04-05T14:04:24.626Z,40.95
2023-04-05T14:06:51.272Z,43.27
2023-04-05T14:09:18.076Z,43.54
2023-04-05T14:11:44.820Z,44.33
2023-04-05T14:14:11.503Z,41.95
2023-04-05T14:16:38.312Z,42.06
2023-04-05T14:19:05.349Z,40.75
2023-04-05T14:21:33.066Z,41.62
2023-04-05T14:24:01.983Z,40.94
2023-04-05T14:26:28.746Z,41.70
2023-04-05T14:28:55.518Z,42.83
2023-04-05T14:31:25.208Z,45.32
2023-04-05T14:33:52.408Z,43.30
2023-04-05T14:36:19.234Z,41.07
2023-04-05T14:38:46.225Z,41.71
2023-04-05T14:41:13.004Z,45.18
2023-04-05T14:43:39.958Z,40.81
2023-04-05T14:46:06.986Z,42.30
2023-04-05T14:48:34.161Z,43.05
2023-04-05T14:51:01.004Z,43.99
2023-04-05T14:53:27.767Z,41.32
2023-04-05T14:55:54.534Z,42.85
2023-04-05T14:58:21.256Z,41.58
2023-04-05T15:00:52.156Z,42.88
2023-04-05T15:03:19.851Z,40.61
2023-04-05T15:05:47.706Z,40.88
2023-04-05T15:08:15.110Z,41.58
2023-04-05T15:10:42.925Z,44.61
2023-04-05T15:13:10.566Z,44.32
2023-04-05T15:15:37.803Z,42.33
2023-04-05T15:18:05.205Z,40.68
2023-04-05T15:20:32.741Z,42.17
2023-04-05T15:22:59.524Z,42.23
2023-04-05T15:25:26.232Z,41.44
2023-04-05T15:27:55.034Z,41.47
2023-04-05T15:30:22.078Z,41.77
2023-04-05T15:32:48.874Z,40.95
2023-04-05T15:35:15.639Z,42.10
2023-04-05T15:37:42.665Z,45.08
2023-04-05T15:40:10.014Z,45.07
2023-04-05T15:42:36.763Z,44.62
2023-04-05T15:45:03.876Z,43.97
2023-04-05T15:47:30.568Z,42.79
2023-04-05T15:49:57.345Z,42.79
2023-04-05T15:52:24.093Z,40.86
2023-04-05T15:54:50.749Z,41.80
2023-04-05T15:57:17.502Z,42.01
2023-04-05T15:59:44.535Z,42.78
2023-04-05T16:02:11.432Z,43.49
2023-04-05T16:04:39.315Z,40.05
2023-04-05T16:07:07.738Z,40.13
2023-04-05T16:09:34.505Z,40.99
2023-04-05T16:12:02.428Z,42.70
2023-04-05T16:14:29.185Z,43.84
2023-04-05T16:16:55.962Z,42.01
2023-04-05T16:19:25.963Z,41.24
2023-04-05T16:21:53.012Z,42.02
2023-04-05T16:24:20.118Z,43.55
2023-04-05T16:26:46.942Z,44.33
2023-04-05T16:29:13.684Z,43.73
2023-04-05T16:31:40.483Z,44.45
2023-04-05T16:34:08.064Z,43.54
2023-04-05T16:36:34.794Z,42.96
2023-04-05T16:39:01.802Z,43.38
2023-04-05T16:41:28.954Z,44.20
2023-04-05T16:43:55.733Z,42.67
2023-04-05T16:46:23.327Z,44.06
2023-04-05T16:48:50.084Z,44.71
2023-04-05T16:51:16.952Z,45.22
2023-04-05T16:53:43.810Z,46.27
2023-04-05T16:56:10.776Z,46.31
2023-04-05T16:58:37.437Z,46.59
2023-04-05T17:01:04.281Z,46.30
2023-04-05T17:03:31.066Z,45.83
2023-04-05T17:05:57.905Z,45.28
2023-04-05T17:08:24.525Z,45.68
2023-04-05T17:10:51.388Z,45.47
2023-04-05T17:13:18.249Z,44.57
2023-04-05T17:15:45.186Z,44.98
2023-04-05T17:18:12.234Z,45.13
2023-04-05T17:20:38.967Z,44.72
2023-04-05T17:23:05.705Z,45.59
2023-04-05T17:25:32.442Z,46.56
2023-04-05T17:27:59.228Z,46.92
2023-04-05T17:30:26.331Z,45.80
2023-04-05T17:32:53.271Z,46.29
2023-04-05T17:35:20.087Z,46.22
2023-04-05T17:37:47.702Z,46.81
2023-04-05T17:40:16.141Z,46.21
2023-04-05T17:42:42.788Z,46.49
2023-04-05T17:45:10.246Z,46.99
2023-04-05T17:47:37.476Z,46.77
2023-04-05T17:50:04.710Z,46.73
2023-04-05T17:52:31.806Z,47.19
2023-04-05T17:54:58.464Z,46.69
2023-04-05T17:57:25.333Z,47.70
2023-04-05T17:59:52.395Z,47.71
2023-04-05T18:02:19.143Z,47.99
2023-04-05T18:04:45.997Z,48.40
2023-04-05T18:07:12.643Z,48.36
2023-04-05T18:09:41.987Z,48.84
2023-04-05T18:12:09.546Z,48.77
2023-04-05T18:14:37.057Z,49.07
2023-04-05T18:17:07.069Z,49.48
2023-04-05T18:19:33.777Z,48.97
2023-04-05T18:22:00.657Z,50.49
2023-04-05T18:24:27.347Z,50.17
2023-04-05T18:26:54.084Z,50.50
2023-04-05T18:29:22.718Z,50.35
2023-04-05T18:31:49.480Z,50.34
2023-04-05T18:34:16.383Z,50.55
2023-04-05T18:36:46.354Z,51.33
2023-04-05T18:39:13.606Z,51.29
2023-04-05T18:41:40.239Z,52.15
2023-04-05T18:44:09.189Z,52.02
2023-04-05T18:46:35.921Z,51.89
2023-04-05T18:49:02.652Z,51.56
2023-04-05T18:51:29.371Z,52.04
2023-04-05T18:53:56.215Z,52.18
2023-04-05T18:56:23.160Z,53.62
2023-04-05T18:58:50.990Z,54.29
2023-04-05T19:01:19.845Z,53.21
2023-04-05T19:03:47.350Z,53.77
2023-04-05T19:06:14.323Z,54.53
2023-04-05T19:08:41.323Z,54.26
2023-04-05T19:11:08.520Z,55.27
2023-04-05T19:13:35.437Z,54.17
2023-04-05T19:16:02.361Z,54.47
2023-04-05T19:18:29.930Z,54.21
2023-04-05T19:20:58.698Z,54.71
2023-04-05T19:23:26.644Z,55.98
2023-04-05T19:26:12.254Z,57.06
2023-04-05T19:28:59.377Z,57.68
2023-04-05T19:31:46.770Z,57.59
2023-04-05T19:34:33.958Z,58.02
2023-04-05T19:37:21.019Z,58.16
2023-04-05T19:40:08.936Z,58.65
2023-04-05T19:42:56.533Z,58.46
2023-04-05T19:45:43.635Z,57.97
2023-04-05T19:48:41.412Z,58.58
2023-04-05T19:51:31.671Z,58.21
2023-04-05T19:54:27.551Z,58.02
2023-04-05T19:57:17.839Z,59.77
2023-04-05T20:00:55.284Z,59.96
2023-04-05T20:03:42.525Z,59.85
2023-04-05T20:06:31.942Z,60.13
2023-04-05T20:09:23.122Z,59.46
2023-04-05T20:12:13.292Z,59.36
2023-04-05T20:15:00.310Z,58.25
2023-04-05T20:17:54.564Z,60.89
2023-04-05T20:20:44.461Z,61.66
2023-04-05T20:23:31.643Z,62.21
2023-04-05T20:26:27.114Z,62.64
2023-04-05T20:29:17.048Z,63.07
2023-04-05T20:32:05.904Z,62.91
2023-04-05T20:34:53.018Z,64.16
2023-04-05T20:37:39.974Z,64.70
2023-04-05T20:40:27.630Z,64.87
2023-04-05T20:43:14.551Z,63.38
2023-04-05T20:46:03.178Z,63.13
2023-04-05T20:48:51.081Z,62.84
2023-04-05T20:51:39.868Z,62.67
2023-04-05T20:54:28.283Z,62.58
2023-04-05T20:57:16.253Z,62.67
2023-04-05T21:00:03.770Z,63.42
2023-04-05T21:02:50.933Z,62.04
2023-04-05T21:05:38.703Z,62.74
2023-04-05T21:08:26.500Z,62.29
2023-04-05T21:11:13.473Z,62.54
2023-04-05T21:14:00.552Z,62.35
2023-04-05T21:16:47.580Z,62.51
2023-04-05T21:19:34.706Z,64.38
2023-04-05T21:22:21.722Z,64.20
2023-04-05T21:25:09.410Z,64.47
2023-04-05T21:27:56.402Z,63.91
2023-04-05T21:30:43.824Z,65.83
2023-04-05T21:33:30.844Z,64.35
2023-04-05T21:36:17.856Z,65.61
2023-04-05T21:39:04.949Z,65.51
2023-04-05T21:41:51.933Z,65.27
2023-04-05T21:44:38.954Z,65.76
2023-04-05T21:47:26.078Z,65.74
2023-04-05T21:50:13.136Z,65.32
2023-04-05T21:53:00.170Z,64.64
2023-04-05T21:55:47.058Z,65.13
2023-04-05T21:58:34.018Z,64.81
2023-04-05T22:01:21.800Z,65.00
2023-04-05T22:04:08.886Z,65.51
2023-04-05T22:06:55.951Z,65.75
2023-04-05T22:09:43.519Z,66.22
2023-04-05T22:12:30.699Z,66.60
2023-04-05T22:15:17.747Z,67.43
2023-04-05T22:18:05.636Z,67.32
2023-04-05T22:20:52.795Z,67.48
2023-04-05T22:23:41.774Z,67.61
2023-04-05T22:26:29.956Z,68.03
2023-04-05T22:29:17.099Z,68.41
2023-04-05T22:32:04.442Z,68.54
2023-04-05T22:34:51.536Z,68.68
2023-04-05T22:37:40.577Z,69.42
2023-04-05T22:40:27.849Z,68.26
2023-04-05T22:43:14.881Z,68.98
2023-04-05T22:46:01.927Z,68.87
2023-04-05T22:48:48.967Z,68.59
2023-04-05T22:51:35.950Z,69.00
2023-04-05T22:54:23.027Z,69.57
2023-04-05T22:57:11.458Z,69.86
2023-04-05T22:59:58.710Z,70.07
2023-04-05T23:02:45.788Z,70.81
2023-04-05T23:05:34.024Z,70.92
2023-04-05T23:08:21.187Z,71.01
2023-04-05T23:11:08.220Z,71.21
2023-04-05T23:13:55.260Z,70.62
2023-04-05T23:16:42.306Z,71.04
2023-04-05T23:19:29.270Z,71.61
2023-04-05T23:22:16.252Z,72.54
2023-04-05T23:25:04.719Z,72.71
2023-04-05T23:27:53.834Z,73.54
2023-04-05T23:30:40.841Z,73.92
2023-04-05T23:33:27.840Z,73.73
2023-04-05T23:36:14.923Z,73.33
2023-04-05T23:39:02.048Z,73.75
2023-04-05T23:41:49.037Z,73.17
2023-04-05T23:44:37.467Z,72.43
2023-04-05T23:47:24.535Z,72.50
2023-04-05T23:50:11.673Z,72.93
2023-04-05T23:53:00.207Z,72.50
2023-04-05T23:55:47.300Z,72.73
2023-04-05T23:58:34.401Z,72.66
